Time;durP1;ratioP1;P1;durP2;ratioP2;P2;SDS_P1;SDS_P2;PMS_P1;PMS_P2;Temp;Humidity;BMP_temperature;BMP_pressure;BME280_temperature;BME280_humidity;BME280_pressure;Samples;Min_cycle;Max_cycle;Signal;HPM_P1;HPM_P2
2022/03/08 00:00:49;;;;;;;13.38;7.53;;;;;;;;;;4821754;29;20344;-63
2022/03/08 00:03:15;;;;;;;13.88;6.93;;;;;;;;;;4821995;29;20466;-62
2022/03/08 00:05:41;;;;;;;13.02;7.22;;;;;;;;;;4805215;29;20093;-62
2022/03/08 00:08:07;;;;;;;13.52;7.38;;;;;;;;;;4821576;29;20065;-62
2022/03/08 00:10:34;;;;;;;15.07;7.65;;;;;;;;;;4821811;29;20142;-62
2022/03/08 00:13:00;;;;;;;12.75;7.15;;;;;;;;;;4821755;29;20051;-62
2022/03/08 00:15:26;;;;;;;13.68;7.10;;;;;;;;;;4821618;29;20054;-61
2022/03/08 00:17:52;;;;;;;;;;;;;;;;;;4822016;29;20128;-63
2022/03/08 00:20:19;;;;;;;15.00;7.72;;;;;;;;;;4821616;29;20226;-62
2022/03/08 00:22:45;;;;;;;14.85;7.30;;;;;;;;;;4821597;29;20515;-62
2022/03/08 00:25:12;;;;;;;16.27;7.70;;;;;;;;;;4835270;29;20061;-63
2022/03/08 00:27:42;;;;;;;13.52;7.53;;;;;;;;;;4821494;29;20552;-63
2022/03/08 00:30:09;;;;;;;14.25;7.40;;;;;;;;;;4805045;29;20385;-62
2022/03/08 00:32:35;;;;;;;13.75;7.65;;;;;;;;;;4834989;29;20050;-62
2022/03/08 00:35:01;;;;;;;13.65;7.75;;;;;;;;;;4820517;29;20057;-63
2022/03/08 00:37:27;;;;;;;14.80;7.22;;;;;;;;;;4821064;29;20056;-62
2022/03/08 00:39:53;;;;;;;14.43;7.88;;;;;;;;;;4820965;29;20226;-62
2022/03/08 00:42:20;;;;;;;15.85;7.80;;;;;;;;;;4821508;29;20050;-62
2022/03/08 00:44:46;;;;;;;14.95;7.78;;;;;;;;;;4804316;29;20460;-62
2022/03/08 00:47:12;;;;;;;13.68;7.32;;;;;;;;;;4835067;29;20068;-62
2022/03/08 00:49:39;;;;;;;19.98;8.25;;;;;;;;;;4821333;29;20046;-62
2022/03/08 00:52:05;;;;;;;15.68;7.97;;;;;;;;;;4819435;29;20133;-62
2022/03/08 00:54:32;;;;;;;14.80;7.80;;;;;;;;;;4821164;29;20130;-62
2022/03/08 00:56:58;;;;;;;15.35;8.40;;;;;;;;;;4820796;29;20505;-63
2022/03/08 00:59:24;;;;;;;15.52;8.15;;;;;;;;;;4821098;29;20122;-61
2022/03/08 01:01:50;;;;;;;16.65;8.75;;;;;;;;;;4834461;29;20062;-62
2022/03/08 01:04:16;;;;;;;16.33;8.25;;;;;;;;;;4804489;29;20062;-62
2022/03/08 01:06:43;;;;;;;17.17;8.73;;;;;;;;;;4819584;29;20062;-63
2022/03/08 01:09:08;;;;;;;;;;;;;;;;;;4834821;29;20058;-62
2022/03/08 01:11:36;;;;;;;16.83;9.10;;;;;;;;;;4821124;29;19948;-62
2022/03/08 01:14:03;;;;;;;17.48;9.15;;;;;;;;;;4804549;29;20455;-62
2022/03/08 01:16:29;;;;;;;16.30;9.05;;;;;;;;;;4821284;29;20054;-62
2022/03/08 01:18:55;;;;;;;17.17;9.15;;;;;;;;;;4804681;29;20137;-62
2022/03/08 01:21:21;;;;;;;17.23;9.35;;;;;;;;;;4804387;29;20042;-62
2022/03/08 01:23:47;;;;;;;16.95;9.88;;;;;;;;;;4821024;29;20517;-62
2022/03/08 01:26:14;;;;;;;19.30;9.63;;;;;;;;;;4820632;29;20450;-63
2022/03/08 01:28:40;;;;;;;17.45;10.55;;;;;;;;;;4820736;29;20050;-63
2022/03/08 01:31:07;;;;;;;20.85;10.68;;;;;;;;;;4820886;29;20057;-62
2022/03/08 01:33:33;;;;;;;18.02;9.27;;;;;;;;;;4820625;29;20480;-62
2022/03/08 01:35:59;;;;;;;16.80;9.90;;;;;;;;;;4820613;29;20464;-62
2022/03/08 01:38:25;;;;;;;17.70;9.88;;;;;;;;;;4820674;29;20062;-62
2022/03/08 01:40:51;;;;;;;17.42;9.32;;;;;;;;;;4822978;29;20105;-62
2022/03/08 01:43:18;;;;;;;17.30;9.25;;;;;;;;;;4823468;29;20536;-62
2022/03/08 01:45:44;;;;;;;16.63;9.95;;;;;;;;;;4837542;29;20093;-62
2022/03/08 01:48:10;;;;;;;18.63;10.43;;;;;;;;;;4823796;29;20244;-62
2022/03/08 01:50:37;;;;;;;16.23;10.00;;;;;;;;;;4823762;29;20046;-63
2022/03/08 01:53:03;;;;;;;;;;;;;;;;;;4824161;29;20118;-62
2022/03/08 01:55:30;;;;;;;19.58;10.13;;;;;;;;;;4824055;29;19936;-62
2022/03/08 01:57:56;;;;;;;18.30;10.88;;;;;;;;;;4837950;29;20061;-62
2022/03/08 02:00:24;;;;;;;17.83;10.48;;;;;;;;;;4823929;29;20061;-62
2022/03/08 02:02:50;;;;;;;18.55;11.32;;;;;;;;;;4823728;29;20133;-62
2022/03/08 02:05:16;;;;;;;19.20;10.65;;;;;;;;;;4823632;29;20105;-62
2022/03/08 02:07:42;;;;;;;19.52;10.90;;;;;;;;;;4837988;29;20140;-62
2022/03/08 02:10:09;;;;;;;18.15;10.98;;;;;;;;;;4823360;29;20046;-63
2022/03/08 02:12:35;;;;;;;;;;;;;;;;;;4823823;29;20162;-62
2022/03/08 02:15:12;;;;;;;20.02;11.45;;;;;;;;;;4807179;29;20393;-63
2022/03/08 02:17:38;;;;;;;20.35;11.98;;;;;;;;;;4837017;29;20527;-63
2022/03/08 02:20:04;;;;;;;20.27;11.95;;;;;;;;;;4836968;29;20202;-63
2022/03/08 02:22:30;;;;;;;19.10;12.00;;;;;;;;;;4823138;29;20110;-64
2022/03/08 02:24:59;;;;;;;21.15;12.40;;;;;;;;;;4823400;29;20050;-63
2022/03/08 02:27:25;;;;;;;21.13;11.75;;;;;;;;;;4823060;29;20108;-63
2022/03/08 02:29:52;;;;;;;20.75;12.20;;;;;;;;;;4822755;29;20054;-63
2022/03/08 02:32:21;;;;;;;21.38;12.43;;;;;;;;;;4823258;29;20398;-63
2022/03/08 02:34:47;;;;;;;20.88;12.40;;;;;;;;;;4823468;29;20499;-63
2022/03/08 02:37:13;;;;;;;21.80;12.95;;;;;;;;;;4837180;29;20463;-63
2022/03/08 02:39:40;;;;;;;21.33;12.55;;;;;;;;;;4823159;29;20080;-63
2022/03/08 02:42:06;;;;;;;21.85;12.25;;;;;;;;;;4822897;29;20167;-63
2022/03/08 02:44:33;;;;;;;19.42;12.30;;;;;;;;;;4822656;29;20436;-63
2022/03/08 02:47:03;;;;;;;20.63;13.15;;;;;;;;;;4823000;29;20054;-63
2022/03/08 02:49:29;;;;;;;19.73;11.95;;;;;;;;;;4822942;29;20073;-63
2022/03/08 02:51:56;;;;;;;21.95;13.00;;;;;;;;;;4832575;29;20160;-63
2022/03/08 02:54:22;;;;;;;21.40;12.93;;;;;;;;;;4806194;29;20054;-63
2022/03/08 02:56:48;;;;;;;23.08;14.38;;;;;;;;;;4836178;29;20110;-63
2022/03/08 02:59:22;;;;;;;23.33;13.48;;;;;;;;;;4821663;29;20082;-63
2022/03/08 03:01:48;;;;;;;23.75;14.27;;;;;;;;;;4821919;29;20357;-63
2022/03/08 03:04:14;;;;;;;22.80;13.77;;;;;;;;;;4822325;29;20054;-63
2022/03/08 03:06:40;;;;;;;;;;;;;;;;;;4822897;29;20383;-63
2022/03/08 03:09:06;;;;;;;24.50;14.93;;;;;;;;;;4805628;29;19932;-64
2022/03/08 03:11:34;;;;;;;20.60;13.50;;;;;;;;;;4835732;29;20047;-63
2022/03/08 03:14:00;;;;;;;25.95;13.98;;;;;;;;;;4822321;29;20540;-63
2022/03/08 03:16:27;;;;;;;23.92;15.07;;;;;;;;;;4821975;29;20129;-63
2022/03/08 03:18:53;;;;;;;21.35;13.77;;;;;;;;;;4822133;29;20138;-63
2022/03/08 03:21:19;;;;;;;21.63;14.27;;;;;;;;;;4822201;29;20160;-63
2022/03/08 03:23:45;;;;;;;24.73;14.80;;;;;;;;;;4822223;29;20050;-63
2022/03/08 03:26:14;;;;;;;25.05;14.68;;;;;;;;;;4776782;29;20566;-63
2022/03/08 03:28:40;;;;;;;23.73;13.75;;;;;;;;;;4822311;29;20072;-64
2022/03/08 03:31:06;;;;;;;23.23;14.35;;;;;;;;;;4821225;29;20397;-63
2022/03/08 03:33:32;;;;;;;23.02;13.98;;;;;;;;;;4821966;29;20153;-63
2022/03/08 03:35:58;;;;;;;30.48;14.93;;;;;;;;;;4822461;29;20050;-63
2022/03/08 03:38:24;;;;;;;23.73;14.68;;;;;;;;;;4822004;29;20081;-63
2022/03/08 03:40:50;;;;;;;24.92;15.05;;;;;;;;;;4821842;29;20047;-63
2022/03/08 03:43:17;;;;;;;25.27;16.00;;;;;;;;;;4821847;29;20144;-63
2022/03/08 03:45:43;;;;;;;25.58;15.45;;;;;;;;;;4821928;29;20062;-63
2022/03/08 03:48:09;;;;;;;25.00;16.17;;;;;;;;;;4821928;29;20058;-63
2022/03/08 03:50:35;;;;;;;28.38;16.98;;;;;;;;;;4821698;29;20062;-63
2022/03/08 03:53:01;;;;;;;23.42;15.48;;;;;;;;;;4820791;29;20127;-64
2022/03/08 03:55:27;;;;;;;25.35;16.77;;;;;;;;;;4821685;29;20152;-63
2022/03/08 03:57:53;;;;;;;25.20;15.82;;;;;;;;;;4821755;29;20058;-63
2022/03/08 04:00:19;;;;;;;26.23;16.10;;;;;;;;;;4821004;29;20054;-64
2022/03/08 04:02:45;;;;;;;27.15;15.45;;;;;;;;;;4820696;29;20130;-63
2022/03/08 04:05:11;;;;;;;;;;;;;;;;;;4821639;29;20054;-64
2022/03/08 04:07:37;;;;;;;26.13;16.50;;;;;;;;;;4821372;29;19981;-63
2022/03/08 04:10:05;;;;;;;29.52;16.45;;;;;;;;;;4834970;29;20141;-64
2022/03/08 04:12:31;;;;;;;25.58;16.33;;;;;;;;;;4821447;29;20058;-64
2022/03/08 04:14:57;;;;;;;25.30;15.73;;;;;;;;;;4821309;29;20074;-63
2022/03/08 04:17:23;;;;;;;24.23;16.00;;;;;;;;;;4821349;29;20054;-64
2022/03/08 04:19:49;;;;;;;25.77;15.85;;;;;;;;;;4834877;29;20054;-63
2022/03/08 04:22:15;;;;;;;25.30;15.95;;;;;;;;;;4821225;29;20054;-64
2022/03/08 04:24:41;;;;;;;25.95;17.05;;;;;;;;;;4821519;29;20086;-63
2022/03/08 04:27:07;;;;;;;26.33;16.58;;;;;;;;;;4821345;29;20062;-63
2022/03/08 04:29:33;;;;;;;25.80;17.05;;;;;;;;;;4820993;29;20137;-63
2022/03/08 04:31:59;;;;;;;28.60;17.35;;;;;;;;;;4821113;29;20062;-63
2022/03/08 04:34:26;;;;;;;26.20;16.75;;;;;;;;;;4789385;29;20068;-64
2022/03/08 04:36:52;;;;;;;25.73;16.92;;;;;;;;;;4821224;29;20509;-63
2022/03/08 04:39:18;;;;;;;;;;;;;;;;;;4821325;29;20480;-63
2022/03/08 04:41:44;;;;;;;27.90;17.88;;;;;;;;;;4820979;29;19931;-63
2022/03/08 04:44:10;;;;;;;28.77;17.65;;;;;;;;;;4821119;29;20095;-63
2022/03/08 04:46:36;;;;;;;27.80;18.15;;;;;;;;;;4821176;29;20047;-63
2022/03/08 04:49:02;;;;;;;28.27;19.17;;;;;;;;;;4821344;29;20081;-63
2022/03/08 04:51:28;;;;;;;27.10;17.42;;;;;;;;;;4821034;29;20046;-63
2022/03/08 04:53:54;;;;;;;27.27;17.70;;;;;;;;;;4821077;29;20167;-63
2022/03/08 04:56:20;;;;;;;30.67;18.83;;;;;;;;;;4821068;29;20138;-63
2022/03/08 04:58:47;;;;;;;28.55;18.35;;;;;;;;;;4835327;29;20059;-63
2022/03/08 05:01:14;;;;;;;32.90;19.40;;;;;;;;;;4820910;29;20062;-63
2022/03/08 05:03:40;;;;;;;30.30;17.80;;;;;;;;;;4820594;29;20200;-63
2022/03/08 05:06:06;;;;;;;29.73;18.15;;;;;;;;;;4821121;29;20057;-63
2022/03/08 05:08:32;;;;;;;29.30;18.73;;;;;;;;;;4821068;29;20163;-63
2022/03/08 05:10:59;;;;;;;28.02;19.40;;;;;;;;;;4835227;29;20155;-62
2022/03/08 05:13:25;;;;;;;31.75;18.85;;;;;;;;;;4820958;29;20050;-63
2022/03/08 05:15:51;;;;;;;29.25;19.55;;;;;;;;;;4823541;29;20058;-63
2022/03/08 05:18:18;;;;;;;31.88;19.42;;;;;;;;;;4824556;29;20330;-63
2022/03/08 05:20:47;;;;;;;27.33;18.42;;;;;;;;;;4823916;29;20141;-64
2022/03/08 05:23:13;;;;;;;;;;;;;;;;;;4825035;29;20094;-63
2022/03/08 05:25:39;;;;;;;31.00;18.77;;;;;;;;;;4824163;29;19925;-63
2022/03/08 05:28:06;;;;;;;31.17;19.33;;;;;;;;;;4837861;29;20145;-63
2022/03/08 05:30:32;;;;;;;29.13;17.98;;;;;;;;;;4823934;29;20179;-63
2022/03/08 05:32:58;;;;;;;31.92;19.17;;;;;;;;;;4824342;29;20169;-63
2022/03/08 05:35:24;;;;;;;30.27;18.35;;;;;;;;;;4837612;29;20127;-63
2022/03/08 05:37:51;;;;;;;28.25;18.95;;;;;;;;;;4823664;29;20050;-63
2022/03/08 05:40:17;;;;;;;31.08;19.73;;;;;;;;;;4823780;29;20054;-63
2022/03/08 05:42:44;;;;;;;32.83;20.88;;;;;;;;;;4807629;29;20058;-63
2022/03/08 05:45:11;;;;;;;30.20;20.17;;;;;;;;;;4823697;29;20158;-62
2022/03/08 05:47:38;;;;;;;34.45;21.02;;;;;;;;;;4838078;29;20162;-63
2022/03/08 05:50:05;;;;;;;31.05;20.23;;;;;;;;;;4824181;29;20054;-63
2022/03/08 05:52:31;;;;;;;31.40;20.15;;;;;;;;;;4823902;29;20069;-63
2022/03/08 05:54:57;;;;;;;39.20;20.77;;;;;;;;;;4823959;29;20106;-63
2022/03/08 05:57:23;;;;;;;33.05;20.70;;;;;;;;;;4823291;29;20539;-63
2022/03/08 05:59:49;;;;;;;33.20;20.02;;;;;;;;;;4822950;29;20456;-63
2022/03/08 06:02:15;;;;;;;;;;;;;;;;;;4823647;29;20050;-63
2022/03/08 06:04:41;;;;;;;34.22;21.50;;;;;;;;;;4805997;29;19932;-63
2022/03/08 06:07:07;;;;;;;32.95;20.48;;;;;;;;;;4822214;29;20064;-63
2022/03/08 06:09:33;;;;;;;36.05;21.73;;;;;;;;;;4821381;29;20453;-63
2022/03/08 06:12:00;;;;;;;33.45;21.10;;;;;;;;;;4821509;29;20050;-63
2022/03/08 06:14:27;;;;;;;34.20;21.67;;;;;;;;;;4805111;29;20184;-64
2022/03/08 06:16:53;;;;;;;32.70;19.88;;;;;;;;;;4821561;29;20061;-63
2022/03/08 06:19:19;;;;;;;30.63;19.85;;;;;;;;;;4821434;29;20233;-63
2022/03/08 06:21:46;;;;;;;34.20;19.60;;;;;;;;;;4820842;29;20051;-63
2022/03/08 06:24:13;;;;;;;30.13;19.63;;;;;;;;;;4834988;29;20091;-63
2022/03/08 06:26:39;;;;;;;33.35;20.65;;;;;;;;;;4819638;29;20134;-64
2022/03/08 06:29:05;;;;;;;33.60;20.05;;;;;;;;;;4820844;29;20140;-64
2022/03/08 06:31:31;;;;;;;34.60;20.60;;;;;;;;;;4818882;29;20054;-64
2022/03/08 06:33:57;;;;;;;31.40;20.50;;;;;;;;;;4820584;29;20490;-64
2022/03/08 06:36:23;;;;;;;30.27;18.63;;;;;;;;;;4804634;29;20055;-63
2022/03/08 06:38:49;;;;;;;33.95;20.15;;;;;;;;;;4820608;29;20121;-63
2022/03/08 06:41:15;;;;;;;36.63;20.40;;;;;;;;;;4820860;29;20130;-63
2022/03/08 06:43:41;;;;;;;34.92;21.05;;;;;;;;;;4820381;29;20402;-63
2022/03/08 06:46:08;;;;;;;34.45;20.42;;;;;;;;;;4820709;29;20093;-64
2022/03/08 06:48:35;;;;;;;31.17;20.60;;;;;;;;;;4821206;29;20105;-64
2022/03/08 06:51:01;;;;;;;;;;;;;;;;;;4804464;29;20132;-63
2022/03/08 06:53:27;;;;;;;31.50;19.67;;;;;;;;;;4820921;29;20011;-63
2022/03/08 06:55:53;;;;;;;33.58;19.60;;;;;;;;;;4804659;29;20062;-63
2022/03/08 06:58:20;;;;;;;30.83;19.60;;;;;;;;;;4804413;29;20054;-63
2022/03/08 07:00:46;;;;;;;30.27;18.48;;;;;;;;;;4821315;29;20546;-63
2022/03/08 07:03:12;;;;;;;28.90;18.35;;;;;;;;;;4820519;29;20061;-63
2022/03/08 07:05:38;;;;;;;31.67;18.35;;;;;;;;;;4820807;29;20114;-63
2022/03/08 07:08:05;;;;;;;27.75;19.08;;;;;;;;;;4835639;29;20106;-63
2022/03/08 07:10:31;;;;;;;28.05;18.00;;;;;;;;;;4820768;29;20133;-63
2022/03/08 07:12:57;;;;;;;29.33;19.08;;;;;;;;;;4820143;29;20046;-62
2022/03/08 07:15:23;;;;;;;30.02;18.02;;;;;;;;;;4820581;29;20515;-62
2022/03/08 07:17:49;;;;;;;28.23;18.00;;;;;;;;;;4820714;29;20133;-64
2022/03/08 07:20:16;;;;;;;25.88;16.80;;;;;;;;;;4820906;29;20046;-62
2022/03/08 07:22:42;;;;;;;33.03;18.50;;;;;;;;;;4820620;29;20145;-63
2022/03/08 07:25:08;;;;;;;;;;;;;;;;;;4820897;29;20058;-63
2022/03/08 07:27:34;;;;;;;29.30;17.80;;;;;;;;;;4820091;29;19940;-63
2022/03/08 07:30:02;;;;;;;31.20;18.65;;;;;;;;;;4820662;29;20050;-63
2022/03/08 07:32:29;;;;;;;26.77;17.05;;;;;;;;;;4820374;29;20058;-63
2022/03/08 07:34:55;;;;;;;30.67;17.58;;;;;;;;;;4820585;29;20133;-63
2022/03/08 07:37:21;;;;;;;28.70;17.58;;;;;;;;;;4819982;29;20074;-61
2022/03/08 07:39:47;;;;;;;30.90;17.52;;;;;;;;;;4820436;29;20046;-64
2022/03/08 07:42:13;;;;;;;26.67;17.73;;;;;;;;;;4820676;29;20161;-63
2022/03/08 07:44:40;;;;;;;30.05;18.10;;;;;;;;;;4820210;29;20054;-63
2022/03/08 07:47:08;;;;;;;27.70;17.40;;;;;;;;;;4835535;29;20058;-64
2022/03/08 07:49:35;;;;;;;28.13;17.60;;;;;;;;;;4820786;29;20108;-62
2022/03/08 07:52:01;;;;;;;;;;;;;;;;;;4820304;29;20050;-64
2022/03/08 07:54:27;;;;;;;30.55;17.30;;;;;;;;;;4819856;29;19989;-63
2022/03/08 07:56:53;;;;;;;27.08;17.25;;;;;;;;;;4833285;29;20056;-62
2022/03/08 07:59:19;;;;;;;31.45;17.48;;;;;;;;;;4820636;29;20050;-63
2022/03/08 08:01:45;;;;;;;26.33;16.02;;;;;;;;;;4819987;29;20131;-64
2022/03/08 08:04:11;;;;;;;29.67;17.60;;;;;;;;;;4820339;29;20158;-65
2022/03/08 08:06:37;;;;;;;27.05;16.55;;;;;;;;;;4820170;29;20065;-64
2022/03/08 08:09:04;;;;;;;26.85;17.00;;;;;;;;;;4820226;29;20066;-62
2022/03/08 08:11:30;;;;;;;26.58;16.20;;;;;;;;;;4820448;29;20057;-65
2022/03/08 08:13:56;;;;;;;30.30;17.17;;;;;;;;;;4818801;29;20444;-63
2022/03/08 08:16:23;;;;;;;27.38;15.85;;;;;;;;;;4819971;29;20398;-61
2022/03/08 08:18:49;;;;;;;25.63;15.88;;;;;;;;;;4819739;29;20448;-64
2022/03/08 08:21:16;;;;;;;25.70;15.43;;;;;;;;;;4820210;29;20398;-62
2022/03/08 08:23:42;;;;;;;25.77;16.42;;;;;;;;;;4820053;29;20510;-66
2022/03/08 08:26:09;;;;;;;23.27;15.27;;;;;;;;;;4803798;29;20141;-63
2022/03/08 08:28:35;;;;;;;25.40;16.50;;;;;;;;;;4819597;29;20061;-61
2022/03/08 08:31:01;;;;;;;26.20;16.50;;;;;;;;;;4819965;29;20050;-63
2022/03/08 08:33:27;;;;;;;25.90;15.77;;;;;;;;;;4819651;29;20051;-63
2022/03/08 08:35:55;;;;;;;26.08;15.07;;;;;;;;;;4819705;29;20054;-62
2022/03/08 08:38:21;;;;;;;27.60;15.55;;;;;;;;;;4819915;29;20424;-63
2022/03/08 08:40:50;;;;;;;25.10;14.73;;;;;;;;;;4819700;29;20042;-62
2022/03/08 08:43:16;;;;;;;24.90;15.75;;;;;;;;;;4819956;29;20054;-65
2022/03/08 08:45:42;;;;;;;27.20;15.05;;;;;;;;;;4819759;29;20062;-63
2022/03/08 08:48:09;;;;;;;26.75;15.07;;;;;;;;;;4819864;29;20213;-62
2022/03/08 08:50:36;;;;;;;23.10;13.77;;;;;;;;;;4819778;29;20087;-63
2022/03/08 08:53:02;;;;;;;27.23;13.80;;;;;;;;;;4820540;29;20224;-65
2022/03/08 08:55:28;;;;;;;23.55;14.10;;;;;;;;;;4820475;29;20512;-68
2022/03/08 08:57:54;;;;;;;22.30;13.80;;;;;;;;;;4820430;29;20059;-64
2022/03/08 09:00:20;;;;;;;28.40;14.00;;;;;;;;;;4820537;29;20085;-65
2022/03/08 09:02:48;;;;;;;21.55;13.50;;;;;;;;;;4820487;29;20062;-64
2022/03/08 09:05:17;;;;;;;30.45;14.23;;;;;;;;;;4820830;29;20062;-65
2022/03/08 09:07:44;;;;;;;25.38;14.35;;;;;;;;;;4820631;29;20046;-64
2022/03/08 09:10:10;;;;;;;21.88;13.55;;;;;;;;;;4819394;29;20046;-64
2022/03/08 09:12:36;;;;;;;23.27;13.32;;;;;;;;;;4819643;29;20150;-65
2022/03/08 09:15:02;;;;;;;22.25;13.73;;;;;;;;;;4819330;29;20122;-63
2022/03/08 09:17:29;;;;;;;22.05;12.95;;;;;;;;;;4833577;29;20055;-64
2022/03/08 09:19:55;;;;;;;22.20;12.73;;;;;;;;;;4818528;29;20480;-64
2022/03/08 09:22:21;;;;;;;23.55;14.10;;;;;;;;;;4819066;29;20484;-63
2022/03/08 09:24:47;;;;;;;26.50;13.38;;;;;;;;;;4819395;29;20077;-64
2022/03/08 09:27:13;;;;;;;27.95;13.13;;;;;;;;;;4819600;29;20134;-65
2022/03/08 09:29:39;;;;;;;21.52;13.23;;;;;;;;;;4819225;29;20058;-65
2022/03/08 09:32:05;;;;;;;22.73;13.55;;;;;;;;;;4819015;29;20076;-63
2022/03/08 09:34:31;;;;;;;21.10;12.88;;;;;;;;;;4819042;29;20141;-63
2022/03/08 09:36:58;;;;;;;23.88;14.05;;;;;;;;;;4819817;29;20046;-64
2022/03/08 09:39:24;;;;;;;26.30;13.15;;;;;;;;;;4819019;29;20141;-62
2022/03/08 09:41:53;;;;;;;22.45;13.02;;;;;;;;;;4832821;29;20046;-63
2022/03/08 09:44:20;;;;;;;21.63;12.32;;;;;;;;;;4818754;29;20058;-63
2022/03/08 09:46:46;;;;;;;20.92;12.75;;;;;;;;;;4818730;29;20094;-62
2022/03/08 09:49:12;;;;;;;21.50;13.05;;;;;;;;;;4818108;29;20498;-62
2022/03/08 09:51:42;;;;;;;20.45;12.80;;;;;;;;;;4818818;29;20057;-68
2022/03/08 09:54:09;;;;;;;21.27;13.52;;;;;;;;;;4819147;29;20121;-62
2022/03/08 09:56:35;;;;;;;22.13;12.13;;;;;;;;;;4832666;29;20424;-63
2022/03/08 09:59:02;;;;;;;21.90;12.23;;;;;;;;;;4818511;29;20437;-65
2022/03/08 10:01:28;;;;;;;;;;;;;;;;;;4804727;29;20133;-62
2022/03/08 10:03:54;;;;;;;20.20;12.27;;;;;;;;;;4805326;29;20052;-63
2022/03/08 10:06:21;;;;;;;25.92;12.23;;;;;;;;;;4822037;29;20171;-65
2022/03/08 10:08:47;;;;;;;20.88;12.77;;;;;;;;;;4821623;29;20467;-64
2022/03/08 10:11:14;;;;;;;22.73;11.85;;;;;;;;;;4822336;29;20503;-64
2022/03/08 10:13:46;;;;;;;20.10;10.82;;;;;;;;;;4822191;29;20054;-64
2022/03/08 10:16:25;;;;;;;19.63;11.27;;;;;;;;;;4821619;29;20062;-63
2022/03/08 10:18:53;;;;;;;20.35;10.80;;;;;;;;;;4821626;29;20062;-67
2022/03/08 10:21:42;;;;;;;18.83;10.45;;;;;;;;;;4835279;29;20057;-63
2022/03/08 10:24:19;;;;;;;17.35;10.73;;;;;;;;;;4821845;29;20479;-63
2022/03/08 10:26:45;;;;;;;18.85;10.63;;;;;;;;;;4821762;29;20054;-71
2022/03/08 10:29:11;;;;;;;20.50;10.50;;;;;;;;;;4821782;29;20074;-68
2022/03/08 10:31:37;;;;;;;18.13;10.75;;;;;;;;;;4821611;29;20106;-66
2022/03/08 10:34:05;;;;;;;16.13;10.00;;;;;;;;;;4822375;29;20159;-65
2022/03/08 10:36:32;;;;;;;18.48;10.25;;;;;;;;;;4821131;29;20340;-64
2022/03/08 10:39:17;;;;;;;16.48;9.57;;;;;;;;;;4821788;29;20164;-76
2022/03/08 10:41:48;;;;;;;24.48;10.15;;;;;;;;;;4821356;29;20125;-64
2022/03/08 10:44:14;;;;;;;15.77;9.00;;;;;;;;;;4820898;29;20107;-64
2022/03/08 10:46:40;;;;;;;17.02;10.00;;;;;;;;;;4822442;29;20055;-69
2022/03/08 10:49:10;;;;;;;19.48;10.07;;;;;;;;;;4836219;29;20051;-73
2022/03/08 10:51:36;;;;;;;20.17;9.55;;;;;;;;;;4822344;29;20528;-68
2022/03/08 10:54:13;;;;;;;20.23;9.48;;;;;;;;;;4821956;29;20064;-70
2022/03/08 10:56:42;;;;;;;17.98;9.57;;;;;;;;;;4836342;29;20058;-77
2022/03/08 10:59:11;;;;;;;18.00;9.77;;;;;;;;;;4822216;29;20064;-72
2022/03/08 11:01:37;;;;;;;15.13;8.90;;;;;;;;;;4821213;29;20069;-66
2022/03/08 11:04:03;;;;;;;15.63;8.85;;;;;;;;;;4821047;29;20098;-67
2022/03/08 11:06:29;;;;;;;16.08;9.10;;;;;;;;;;4821428;29;20115;-70
2022/03/08 11:08:56;;;;;;;13.55;7.57;;;;;;;;;;4821519;29;20051;-65
2022/03/08 11:11:22;;;;;;;15.98;7.65;;;;;;;;;;4821011;29;20132;-66
2022/03/08 11:13:51;;;;;;;14.48;7.50;;;;;;;;;;4820637;29;20072;-69
2022/03/08 11:16:21;;;;;;;18.92;8.00;;;;;;;;;;4834766;29;20095;-71
2022/03/08 11:18:49;;;;;;;14.18;7.53;;;;;;;;;;4820376;29;20110;-70
2022/03/08 11:21:16;;;;;;;13.50;7.78;;;;;;;;;;4820400;29;20484;-66
2022/03/08 11:23:43;;;;;;;14.43;7.75;;;;;;;;;;4805918;29;20055;-70
2022/03/08 11:26:10;;;;;;;14.35;7.28;;;;;;;;;;4820398;29;20059;-70
2022/03/08 11:28:38;;;;;;;14.75;7.60;;;;;;;;;;4819983;29;20046;-62
2022/03/08 11:31:04;;;;;;;15.93;7.30;;;;;;;;;;4820207;29;20061;-67
2022/03/08 11:33:49;;;;;;;14.02;6.95;;;;;;;;;;4819987;29;20073;-61
2022/03/08 11:36:33;;;;;;;19.27;7.60;;;;;;;;;;4819947;29;20050;-63
2022/03/08 11:39:14;;;;;;;16.08;7.45;;;;;;;;;;4820309;29;20114;-67
2022/03/08 11:41:41;;;;;;;13.25;7.43;;;;;;;;;;4820646;29;20118;-70
2022/03/08 11:44:10;;;;;;;13.75;7.10;;;;;;;;;;4820787;29;20476;-68
2022/03/08 11:46:36;;;;;;;15.15;8.07;;;;;;;;;;4819867;29;20101;-75
2022/03/08 11:49:04;;;;;;;18.23;7.07;;;;;;;;;;4820630;29;20118;-66
2022/03/08 11:51:33;;;;;;;15.65;7.68;;;;;;;;;;4820381;29;20050;-66
2022/03/08 11:54:09;;;;;;;14.13;7.38;;;;;;;;;;4820336;29;20094;-72
2022/03/08 11:56:49;;;;;;;16.63;7.37;;;;;;;;;;4820243;29;20058;-74
2022/03/08 11:59:16;;;;;;;13.25;6.88;;;;;;;;;;4819781;29;20062;-72
2022/03/08 12:01:42;;;;;;;13.10;7.00;;;;;;;;;;4833535;29;20046;-63
2022/03/08 12:04:12;;;;;;;13.15;6.30;;;;;;;;;;4819887;29;20046;-73
2022/03/08 12:06:39;;;;;;;14.52;7.07;;;;;;;;;;4819619;29;20085;-73
2022/03/08 12:09:13;;;;;;;16.38;6.70;;;;;;;;;;4833054;29;20105;-68
2022/03/08 12:11:43;;;;;;;15.85;7.30;;;;;;;;;;4819603;29;20046;-62
2022/03/08 12:14:29;;;;;;;16.90;7.47;;;;;;;;;;4820054;29;20099;-67
2022/03/08 12:17:09;;;;;;;13.40;7.35;;;;;;;;;;4819591;29;20141;-65
2022/03/08 12:19:37;;;;;;;13.90;6.55;;;;;;;;;;4820036;29;20356;-61
2022/03/08 12:22:08;;;;;;;13.50;6.80;;;;;;;;;;4833404;29;20069;-62
2022/03/08 12:24:42;;;;;;;12.77;6.68;;;;;;;;;;4819971;29;20451;-67
2022/03/08 12:27:09;;;;;;;15.32;6.80;;;;;;;;;;4834530;29;20050;-67
2022/03/08 12:29:51;;;;;;;20.08;7.00;;;;;;;;;;4803658;29;20050;-67
2022/03/08 12:32:28;;;;;;;14.75;7.15;;;;;;;;;;4819489;29;20054;-65
2022/03/08 12:34:58;;;;;;;14.30;6.70;;;;;;;;;;4819496;29;20092;-63
2022/03/08 12:37:27;;;;;;;18.65;6.65;;;;;;;;;;4819201;29;20130;-63
2022/03/08 12:39:58;;;;;;;14.13;6.57;;;;;;;;;;4819934;29;20134;-68
2022/03/08 12:42:30;;;;;;;16.25;7.32;;;;;;;;;;4819559;29;20466;-68
2022/03/08 12:45:11;;;;;;;15.40;6.95;;;;;;;;;;4802407;29;20098;-64
2022/03/08 12:47:49;;;;;;;15.60;7.03;;;;;;;;;;4819448;29;20146;-71
2022/03/08 12:50:20;;;;;;;20.65;7.40;;;;;;;;;;4819394;29;20130;-74
2022/03/08 12:53:05;;;;;;;14.40;6.82;;;;;;;;;;4819511;29;20479;-71
2022/03/08 12:55:34;;;;;;;13.18;6.47;;;;;;;;;;4818000;29;20486;-63
2022/03/08 12:58:01;;;;;;;17.77;6.93;;;;;;;;;;4819096;29;20058;-68
2022/03/08 13:00:29;;;;;;;14.95;6.45;;;;;;;;;;4820044;29;20092;-65
2022/03/08 13:02:55;;;;;;;13.57;6.63;;;;;;;;;;4820288;29;20046;-67
2022/03/08 13:05:35;;;;;;;12.68;6.35;;;;;;;;;;4819251;29;20095;-67
2022/03/08 13:08:01;;;;;;;15.82;6.40;;;;;;;;;;4819265;29;20050;-64
2022/03/08 13:10:28;;;;;;;14.13;6.55;;;;;;;;;;4833049;29;20105;-72
2022/03/08 13:12:56;;;;;;;15.02;6.13;;;;;;;;;;4819993;29;20062;-71
2022/03/08 13:15:24;;;;;;;12.23;6.20;;;;;;;;;;4820773;29;20133;-68
2022/03/08 13:17:59;;;;;;;12.70;6.18;;;;;;;;;;4820216;29;20046;-70
2022/03/08 13:20:30;;;;;;;14.73;6.13;;;;;;;;;;4820077;29;20047;-65
2022/03/08 13:22:56;;;;;;;13.23;6.15;;;;;;;;;;4819975;29;20106;-65
2022/03/08 13:25:23;;;;;;;14.82;6.53;;;;;;;;;;4820129;29;20076;-67
2022/03/08 13:27:50;;;;;;;13.15;6.30;;;;;;;;;;4820671;29;20380;-74
2022/03/08 13:30:19;;;;;;;14.73;6.47;;;;;;;;;;4819530;29;20050;-69
2022/03/08 13:32:46;;;;;;;16.50;6.78;;;;;;;;;;4820494;29;20086;-72
2022/03/08 13:35:13;;;;;;;12.18;6.40;;;;;;;;;;4820808;29;20069;-75
2022/03/08 13:37:47;;;;;;;12.10;6.53;;;;;;;;;;4823514;29;20502;-73
2022/03/08 13:40:31;;;;;;;13.13;6.85;;;;;;;;;;4823200;29;20123;-72
2022/03/08 13:42:57;;;;;;;13.38;7.03;;;;;;;;;;4823323;29;20065;-74
2022/03/08 13:45:23;;;;;;;16.38;7.13;;;;;;;;;;4823018;29;20062;-71
2022/03/08 13:47:55;;;;;;;14.10;7.13;;;;;;;;;;4822724;29;20062;-71
2022/03/08 13:50:22;;;;;;;13.27;7.40;;;;;;;;;;4806793;29;20046;-83
2022/03/08 13:52:55;;;;;;;17.77;7.93;;;;;;;;;;4822631;29;20460;-73
2022/03/08 13:55:26;;;;;;;15.77;7.60;;;;;;;;;;4821667;29;20122;-73
2022/03/08 13:57:55;;;;;;;14.95;7.60;;;;;;;;;;4823051;29;20054;-76
2022/03/08 14:00:21;;;;;;;26.88;7.82;;;;;;;;;;4806204;29;20151;-69
2022/03/08 14:02:54;;;;;;;14.85;7.28;;;;;;;;;;4821703;29;20054;-72
2022/03/08 14:05:21;;;;;;;14.02;6.45;;;;;;;;;;4822798;29;20114;-84
2022/03/08 14:07:57;;;;;;;15.20;7.47;;;;;;;;;;4822608;29;20092;-70
2022/03/08 14:10:24;;;;;;;13.50;6.87;;;;;;;;;;4822679;29;20050;-77
2022/03/08 14:12:50;;;;;;;14.32;6.90;;;;;;;;;;4822642;29;20046;-63
2022/03/08 14:15:17;;;;;;;13.63;6.78;;;;;;;;;;4822724;29;20147;-74
2022/03/08 14:17:43;;;;;;;;;;;;;;;;;;4806422;29;20491;-85
2022/03/08 14:20:20;;;;;;;13.15;5.85;;;;;;;;;;4822532;29;20064;-68
2022/03/08 14:22:59;;;;;;;13.20;6.20;;;;;;;;;;4806228;29;20404;-66
2022/03/08 14:25:25;;;;;;;13.82;6.32;;;;;;;;;;4835794;29;20133;-71
2022/03/08 14:27:51;;;;;;;13.30;5.78;;;;;;;;;;4835889;29;20126;-79